CONNECT WITH FLYNQY PILOT TRAINING

Newquay Five Day Forecast

This Weather Widget is provided by the Met Office

EGHQ TAF and METAR

METAR

EGHQ 252050Z 05001KT 9999 SCT024 06/04 Q1016

TAF

TAF EGHQ 251701Z 2518/2522 36006KT 9999 SCT030 PROB30 2520/2522 8000